createdAt,value
2018-02-21T00:02:34.407Z,84.90
2018-02-21T00:05:05.105Z,85.20
2018-02-21T00:07:39.016Z,85.20
2018-02-21T00:10:13.602Z,85.40
2018-02-21T00:12:43.662Z,85.50
2018-02-21T00:15:13.410Z,85.40
2018-02-21T00:17:43.322Z,85.50
2018-02-21T00:20:44.292Z,85.40
2018-02-21T00:23:23.768Z,85.70
2018-02-21T00:25:57.359Z,85.50
2018-02-21T00:28:28.200Z,85.70
2018-02-21T00:30:59.665Z,85.60
2018-02-21T00:33:29.705Z,85.80
2018-02-21T00:36:06.937Z,86.20
2018-02-21T00:38:38.866Z,86.30
2018-02-21T00:41:10.497Z,86.30
2018-02-21T00:43:41.511Z,86.40
2018-02-21T00:46:11.138Z,86.50
2018-02-21T00:49:10.380Z,86.60
2018-02-21T00:51:42.489Z,86.60
2018-02-21T00:54:19.355Z,87.30
2018-02-21T00:59:30.910Z,86.70
2018-02-21T01:02:03.798Z,86.70
2018-02-21T01:04:37.006Z,86.60
2018-02-21T01:07:10.592Z,87.00
2018-02-21T01:09:47.450Z,87.40
2018-02-21T01:12:27.814Z,87.40
2018-02-21T01:14:58.328Z,87.40
2018-02-21T01:17:52.562Z,87.60
2018-02-21T01:21:02.377Z,87.80
2018-02-21T01:23:32.964Z,87.60
2018-02-21T01:26:28.880Z,88.00
2018-02-21T01:30:37.006Z,88.30
2018-02-21T01:33:08.755Z,88.30
2018-02-21T01:36:38.610Z,88.20
2018-02-21T01:44:55.411Z,88.30
2018-02-21T01:47:27.643Z,88.60
2018-02-21T01:50:00.883Z,88.80
2018-02-21T01:53:05.855Z,88.50
2018-02-21T01:55:39.993Z,88.40
2018-02-21T01:58:14.207Z,88.50
2018-02-21T02:01:51.110Z,89.10
2018-02-21T02:04:22.418Z,88.30
2018-02-21T02:06:52.323Z,88.30
2018-02-21T02:09:31.123Z,88.50
2018-02-21T02:13:03.330Z,88.60
2018-02-21T02:15:43.166Z,88.60
2018-02-21T02:18:13.377Z,88.70
2018-02-21T02:20:43.300Z,88.80
2018-02-21T02:23:28.175Z,88.50
2018-02-21T02:26:01.360Z,88.50
2018-02-21T02:28:31.515Z,88.70
2018-02-21T02:31:02.588Z,89.20
2018-02-21T02:33:39.436Z,89.30
2018-02-21T02:36:12.181Z,89.10
2018-02-21T02:38:44.149Z,89.20
2018-02-21T02:41:15.491Z,89.50
2018-02-21T02:43:45.945Z,89.40
2018-02-21T02:46:16.452Z,89.40
2018-02-21T02:48:46.605Z,89.40
2018-02-21T02:51:16.326Z,89.30
2018-02-21T02:53:46.957Z,89.50
2018-02-21T02:56:17.134Z,89.40
2018-02-21T02:58:47.289Z,89.20
2018-02-21T03:01:17.780Z,89.50
2018-02-21T03:03:49.875Z,89.60
2018-02-21T03:06:20.195Z,89.50
2018-02-21T03:08:49.707Z,89.40
2018-02-21T03:11:20.508Z,89.00
2018-02-21T03:13:51.594Z,88.60
2018-02-21T03:16:21.470Z,88.60
2018-02-21T03:18:51.281Z,88.50
2018-02-21T03:21:24.352Z,88.40
2018-02-21T03:23:57.468Z,88.40
2018-02-21T03:26:28.139Z,88.60
2018-02-21T03:28:58.807Z,88.50
2018-02-21T03:31:44.269Z,88.50
2018-02-21T03:34:36.126Z,88.60
2018-02-21T03:37:06.280Z,88.60
2018-02-21T03:39:45.884Z,88.70
2018-02-21T03:42:19.369Z,88.60
2018-02-21T03:44:52.818Z,88.60
2018-02-21T03:47:25.089Z,88.00
2018-02-21T03:50:06.062Z,87.80
2018-02-21T03:52:38.633Z,87.80
2018-02-21T03:55:08.766Z,88.10
2018-02-21T03:57:48.384Z,88.10
2018-02-21T04:00:31.519Z,88.10
2018-02-21T04:03:03.688Z,87.70
2018-02-21T04:05:39.438Z,87.70
2018-02-21T04:08:10.589Z,87.70
2018-02-21T04:10:40.545Z,87.60
2018-02-21T04:13:12.481Z,87.40
2018-02-21T04:15:42.282Z,87.60
2018-02-21T04:18:12.076Z,87.50
2018-02-21T04:20:42.203Z,87.70
2018-02-21T04:23:11.609Z,87.60
2018-02-21T04:25:41.175Z,87.40
2018-02-21T04:28:11.476Z,87.20
2018-02-21T04:30:45.847Z,87.20
2018-02-21T04:33:15.119Z,86.80
2018-02-21T04:35:47.716Z,86.70
2018-02-21T04:38:17.307Z,86.40
2018-02-21T04:40:47.795Z,86.50
2018-02-21T04:43:54.391Z,86.10
2018-02-21T04:46:24.612Z,86.20
2018-02-21T04:49:07.449Z,86.10
2018-02-21T04:51:47.158Z,86.10
2018-02-21T04:54:17.121Z,86.10
2018-02-21T04:56:58.082Z,86.20
2018-02-21T04:59:28.849Z,86.00
2018-02-21T05:02:12.565Z,86.10
2018-02-21T05:04:44.806Z,85.90
2018-02-21T05:07:17.897Z,85.60
2018-02-21T05:09:48.526Z,85.70
2018-02-21T05:12:18.546Z,86.00
2018-02-21T05:14:49.274Z,85.90
2018-02-21T05:17:25.232Z,85.90
2018-02-21T05:20:00.626Z,86.10
2018-02-21T05:22:39.208Z,86.00
2018-02-21T05:25:09.928Z,86.00
2018-02-21T05:27:45.446Z,86.10
2018-02-21T05:30:28.233Z,86.00
2018-02-21T05:32:58.530Z,86.00
2018-02-21T05:35:37.975Z,86.20
2018-02-21T05:38:27.572Z,85.80
2018-02-21T05:41:12.421Z,85.80
2018-02-21T05:43:46.440Z,85.60
2018-02-21T05:46:18.173Z,85.60
2018-02-21T05:49:59.369Z,85.90
2018-02-21T05:52:36.426Z,85.90
2018-02-21T05:55:17.552Z,85.90
2018-02-21T05:58:02.685Z,85.90
2018-02-21T06:00:33.326Z,85.90
2018-02-21T06:03:17.032Z,86.00
2018-02-21T06:05:47.394Z,85.70
2018-02-21T06:08:19.468Z,85.40
2018-02-21T06:10:50.297Z,85.20
2018-02-21T06:13:58.849Z,85.40
2018-02-21T06:22:27.176Z,85.10
2018-02-21T06:24:57.009Z,85.00
2018-02-21T06:28:10.407Z,85.00
2018-02-21T06:31:04.497Z,85.40
2018-02-21T06:34:18.237Z,85.50
2018-02-21T06:37:08.806Z,85.60
2018-02-21T06:40:08.661Z,85.90
2018-02-21T06:49:46.377Z,85.30
2018-02-21T06:53:00.474Z,85.30
2018-02-21T06:59:12.642Z,84.80
2018-02-21T07:01:58.439Z,84.80
2018-02-21T07:04:54.851Z,84.90
2018-02-21T07:07:42.684Z,84.90
2018-02-21T07:10:22.946Z,84.70
2018-02-21T07:13:02.412Z,84.60
2018-02-21T07:15:43.112Z,84.30
2018-02-21T07:18:15.851Z,84.20
2018-02-21T07:20:47.695Z,83.80
2018-02-21T07:23:17.874Z,83.80
2018-02-21T07:29:27.275Z,83.10
2018-02-21T07:31:59.954Z,82.80
2018-02-21T07:34:43.146Z,82.80
2018-02-21T07:37:15.947Z,82.70
2018-02-21T07:39:57.369Z,82.70
2018-02-21T07:42:33.969Z,82.60
2018-02-21T07:45:04.940Z,82.40
2018-02-21T07:47:35.789Z,81.80
2018-02-21T07:51:56.088Z,78.20
2018-02-21T07:58:37.178Z,70.40
2018-02-21T08:01:07.999Z,67.20
2018-02-21T08:03:38.536Z,66.50
2018-02-21T08:06:18.823Z,63.20
2018-02-21T08:08:52.123Z,63.20
2018-02-21T08:11:25.583Z,61.00
2018-02-21T08:13:58.653Z,61.00
2018-02-21T08:16:33.716Z,60.80
2018-02-21T08:19:11.116Z,62.60
2018-02-21T08:21:46.437Z,61.30
2018-02-21T08:24:50.872Z,61.20
2018-02-21T08:27:37.494Z,61.30
2018-02-21T08:30:11.096Z,62.40
2018-02-21T08:32:45.800Z,62.60
2018-02-21T08:35:39.104Z,60.90
2018-02-21T08:39:11.236Z,61.10
2018-02-21T08:41:42.469Z,61.20
2018-02-21T08:44:12.898Z,61.10
2018-02-21T08:46:43.771Z,59.50
2018-02-21T08:49:29.987Z,58.50
2018-02-21T08:51:59.316Z,58.40
2018-02-21T08:54:39.806Z,60.00
2018-02-21T08:57:16.924Z,63.70
2018-02-21T08:59:59.046Z,67.80
2018-02-21T09:03:06.513Z,69.20
2018-02-21T09:05:44.002Z,69.70
2018-02-21T09:08:39.130Z,71.30
2018-02-21T09:11:12.515Z,71.00
2018-02-21T09:13:56.611Z,71.40
2018-02-21T09:16:39.138Z,71.30
2018-02-21T09:19:10.162Z,72.30
2018-02-21T09:21:43.711Z,73.10
2018-02-21T09:24:15.904Z,73.20
2018-02-21T09:26:52.683Z,73.20
2018-02-21T09:29:53.327Z,73.60
2018-02-21T09:32:39.628Z,74.40
2018-02-21T09:35:11.661Z,74.10
2018-02-21T09:38:14.129Z,72.90
2018-02-21T09:40:45.749Z,73.30
2018-02-21T09:43:17.069Z,73.20
2018-02-21T09:45:52.553Z,73.20
2018-02-21T09:58:16.785Z,72.90
2018-02-21T10:01:06.017Z,72.90
2018-02-21T10:03:47.831Z,72.40
2018-02-21T10:06:33.010Z,71.60
2018-02-21T10:09:25.496Z,71.70
2018-02-21T10:11:58.461Z,71.70
2018-02-21T10:15:07.194Z,70.90
2018-02-21T10:17:50.805Z,69.90
2018-02-21T10:27:44.906Z,67.90
2018-02-21T10:30:23.859Z,66.50
2018-02-21T10:32:55.088Z,67.10
2018-02-21T10:35:43.543Z,67.10
2018-02-21T10:38:16.654Z,65.90
2018-02-21T10:40:47.539Z,65.50
2018-02-21T10:43:24.525Z,64.90
2018-02-21T10:45:59.910Z,64.90
2018-02-21T10:48:31.042Z,64.60
2018-02-21T10:51:30.313Z,64.60
2018-02-21T10:54:18.899Z,64.50
2018-02-21T10:57:12.962Z,63.80
2018-02-21T10:59:58.766Z,62.20
2018-02-21T11:02:35.177Z,63.70
2018-02-21T11:05:33.322Z,64.30
2018-02-21T11:08:49.820Z,62.60
2018-02-21T11:11:29.966Z,62.20
2018-02-21T11:14:01.988Z,62.50
2018-02-21T11:16:32.413Z,62.50
2018-02-21T11:19:14.210Z,62.60
2018-02-21T11:21:53.447Z,63.40
2018-02-21T11:27:36.181Z,61.30
2018-02-21T11:30:07.210Z,60.50
2018-02-21T11:32:41.180Z,62.20
2018-02-21T11:35:23.658Z,62.00
2018-02-21T11:38:02.662Z,60.80
2018-02-21T11:40:53.057Z,61.10
2018-02-21T11:43:23.990Z,61.60
2018-02-21T11:45:57.958Z,61.00
2018-02-21T11:48:29.713Z,61.00
2018-02-21T11:51:21.217Z,60.90
2018-02-21T11:54:44.049Z,60.20
2018-02-21T11:57:42.646Z,60.30
2018-02-21T12:00:27.060Z,60.80
2018-02-21T12:03:10.745Z,60.30
2018-02-21T12:09:30.915Z,60.40
2018-02-21T12:12:13.308Z,60.30
2018-02-21T12:14:44.560Z,60.80
2018-02-21T12:25:19.936Z,59.40
2018-02-21T12:27:51.230Z,60.30
2018-02-21T12:33:55.177Z,60.30
2018-02-21T12:37:03.881Z,58.30
2018-02-21T12:40:37.709Z,57.60
2018-02-21T12:43:16.584Z,59.00
2018-02-21T12:45:52.202Z,58.20
2018-02-21T12:48:53.695Z,58.70
2018-02-21T12:51:55.597Z,58.50
2018-02-21T12:54:51.060Z,58.40
2018-02-21T13:00:25.266Z,59.00
2018-02-21T13:03:15.689Z,58.90
2018-02-21T13:19:05.507Z,59.00
2018-02-21T13:21:56.083Z,60.30
2018-02-21T13:25:07.518Z,61.20
2018-02-21T13:27:45.297Z,61.10
2018-02-21T13:37:34.259Z,60.70
2018-02-21T14:24:21.221Z,60.30
2018-02-21T14:30:33.060Z,59.70
2018-02-21T14:33:46.831Z,59.60
2018-02-21T14:37:26.266Z,60.00
2018-02-21T14:40:23.223Z,60.70
2018-02-21T15:20:02.425Z,61.00
2018-02-21T16:01:28.641Z,66.30
2018-02-21T16:05:22.660Z,67.40
2018-02-21T16:07:59.506Z,66.70
2018-02-21T16:31:43.082Z,68.80
2018-02-21T18:01:01.091Z,69.70
2018-02-21T20:15:21.854Z,72.40
2018-02-21T20:17:56.289Z,72.30
2018-02-21T22:10:32.467Z,71.50
2018-02-21T22:13:08.393Z,71.20
2018-02-21T22:23:29.480Z,71.80
2018-02-21T22:26:12.052Z,72.20
2018-02-21T22:28:49.962Z,72.30
2018-02-21T22:31:59.043Z,72.60
2018-02-21T22:34:33.616Z,72.60
2018-02-21T22:45:05.008Z,73.60
2018-02-21T22:47:45.934Z,73.50
2018-02-21T22:50:25.469Z,73.60
2018-02-21T22:53:01.617Z,73.60
2018-02-21T22:55:36.964Z,73.40
2018-02-21T22:58:13.793Z,73.80
2018-02-21T23:01:02.912Z,73.80
2018-02-21T23:03:41.133Z,74.30
2018-02-21T23:06:11.556Z,74.20
2018-02-21T23:08:51.007Z,74.60
2018-02-21T23:11:26.840Z,74.60
2018-02-21T23:13:57.232Z,74.60
2018-02-21T23:16:29.570Z,74.50
2018-02-21T23:26:47.266Z,74.60
2018-02-21T23:33:34.124Z,75.20
2018-02-21T23:36:04.792Z,75.10
2018-02-21T23:38:38.150Z,75.20
2018-02-21T23:41:10.709Z,75.40
2018-02-21T23:43:44.143Z,75.70
2018-02-21T23:46:18.596Z,76.00
2018-02-21T23:55:21.416Z,76.90
2018-02-21T23:57:51.728Z,77.20
